createdAt,value
2023-02-05T00:00:49.652Z,5.40
2023-02-05T00:03:16.313Z,5.37
2023-02-05T00:05:43.249Z,5.37
2023-02-05T00:08:09.837Z,5.63
2023-02-05T00:10:36.503Z,6.27
2023-02-05T00:15:47.646Z,6.03
2023-02-05T00:21:00.687Z,6.37
2023-02-05T00:26:13.389Z,5.90
2023-02-05T00:31:24.916Z,5.60
2023-02-05T00:36:36.294Z,5.80
2023-02-05T00:39:03.916Z,5.47
2023-02-05T00:41:30.560Z,5.50
2023-02-05T00:43:57.460Z,5.50
2023-02-05T00:46:24.158Z,4.90
2023-02-05T00:48:52.771Z,5.40
2023-02-05T00:51:21.981Z,6.07
2023-02-05T00:56:32.521Z,6.33
2023-02-05T01:01:47.649Z,5.20
2023-02-05T01:06:58.763Z,4.73
2023-02-05T01:09:25.362Z,5.20
2023-02-05T01:11:52.067Z,5.23
2023-02-05T01:14:18.606Z,5.53
2023-02-05T01:16:45.511Z,5.13
2023-02-05T01:19:12.719Z,5.43
2023-02-05T01:21:39.339Z,4.63
2023-02-05T01:26:50.348Z,6.10
2023-02-05T01:32:01.272Z,5.77
2023-02-05T01:37:12.416Z,5.73
2023-02-05T01:42:24.006Z,8.57
2023-02-05T02:16:42.881Z,9.63
2023-02-05T02:19:16.040Z,13.37
2023-02-05T02:21:51.616Z,13.47
2023-02-05T02:24:21.080Z,17.67
2023-02-05T02:29:59.655Z,15.70
2023-02-05T02:32:37.331Z,14.13
2023-02-05T02:35:16.129Z,12.33
2023-02-05T02:40:30.175Z,11.73
2023-02-05T02:43:06.048Z,11.80
2023-02-05T02:45:33.992Z,12.03
2023-02-05T02:48:01.201Z,11.60
2023-02-05T02:53:19.611Z,11.90
2023-02-05T02:58:34.970Z,12.70
2023-02-05T03:01:01.927Z,12.60
2023-02-05T03:03:28.791Z,11.60
2023-02-05T03:05:55.482Z,11.77
2023-02-05T03:08:28.083Z,12.43
2023-02-05T03:11:05.466Z,11.33
2023-02-05T03:16:20.913Z,11.13
2023-02-05T03:21:35.764Z,11.03
2023-02-05T03:26:48.236Z,11.17
2023-02-05T03:32:45.099Z,9.33
2023-02-05T03:38:20.154Z,9.60
2023-02-05T03:40:51.577Z,10.00
2023-02-05T03:43:37.859Z,7.77
2023-02-05T03:46:16.110Z,7.50
2023-02-05T03:49:03.469Z,7.70
2023-02-05T03:54:33.256Z,8.27
2023-02-05T03:57:15.524Z,7.37
2023-02-05T03:59:42.157Z,9.03
2023-02-05T04:02:09.789Z,7.80
2023-02-05T04:07:25.206Z,8.40
2023-02-05T04:12:36.835Z,7.93
2023-02-05T04:17:53.749Z,8.40
2023-02-05T04:20:20.806Z,8.67
2023-02-05T04:22:47.364Z,8.57
2023-02-05T04:25:14.167Z,8.60
2023-02-05T04:27:42.063Z,8.47
2023-02-05T04:30:09.759Z,8.87
2023-02-05T04:32:40.144Z,8.43
2023-02-05T04:35:06.885Z,8.23
2023-02-05T04:37:33.433Z,9.10
2023-02-05T04:40:00.208Z,8.07
2023-02-05T04:45:11.114Z,8.33
2023-02-05T04:50:22.032Z,7.93
2023-02-05T04:55:32.970Z,6.67
2023-02-05T04:57:59.823Z,7.80
2023-02-05T05:00:26.412Z,8.17
2023-02-05T05:02:53.257Z,7.47
2023-02-05T05:05:19.927Z,8.33
2023-02-05T05:07:47.049Z,7.57
2023-02-05T05:10:13.678Z,7.47
2023-02-05T05:12:40.239Z,6.90
2023-02-05T05:15:07.105Z,8.17
2023-02-05T05:17:33.979Z,7.57
2023-02-05T05:22:44.936Z,6.63
2023-02-05T05:25:11.569Z,7.37
2023-02-05T05:27:38.158Z,7.37
2023-02-05T05:30:04.785Z,8.53
2023-02-05T05:32:31.369Z,10.00
2023-02-05T05:34:57.925Z,8.27
2023-02-05T05:37:24.533Z,8.37
2023-02-05T05:40:10.007Z,9.43
2023-02-05T05:42:56.027Z,12.77
2023-02-05T05:45:22.650Z,10.05
2023-02-05T05:47:49.366Z,13.27
2023-02-05T05:50:16.074Z,12.27
2023-02-05T05:52:42.667Z,9.27
2023-02-05T05:55:09.228Z,11.63
2023-02-05T05:57:35.753Z,6.93
2023-02-05T06:02:47.269Z,10.18
2023-02-05T06:05:13.870Z,10.60
2023-02-05T06:07:40.520Z,11.50
2023-02-05T06:10:07.318Z,11.70
2023-02-05T06:15:18.175Z,11.70
2023-02-05T06:20:28.964Z,11.63
2023-02-05T06:25:39.776Z,12.47
2023-02-05T06:30:50.914Z,10.40
2023-02-05T06:33:17.623Z,10.50
2023-02-05T06:35:44.266Z,11.27
2023-02-05T06:38:10.802Z,9.90
2023-02-05T06:43:21.779Z,9.97
2023-02-05T06:48:32.814Z,12.17
2023-02-05T06:51:01.688Z,11.13
2023-02-05T06:53:28.415Z,10.90
2023-02-05T06:55:57.549Z,10.27
2023-02-05T06:58:24.143Z,11.23
2023-02-05T07:00:50.683Z,11.77
2023-02-05T07:03:17.301Z,12.23
2023-02-05T07:05:43.913Z,11.87
2023-02-05T07:08:10.543Z,17.37
2023-02-05T07:10:37.069Z,12.00
2023-02-05T07:15:47.929Z,17.97
2023-02-05T07:20:59.307Z,30.77
2023-02-05T07:26:10.745Z,18.53
2023-02-05T07:31:21.730Z,27.70
2023-02-05T07:36:32.535Z,22.50
2023-02-05T07:38:59.137Z,22.73
2023-02-05T07:41:28.749Z,20.87
2023-02-05T07:43:55.317Z,20.00
2023-02-05T07:46:22.202Z,19.13
2023-02-05T07:48:48.851Z,19.33
2023-02-05T07:51:16.310Z,19.60
2023-02-05T07:56:27.158Z,20.43
2023-02-05T08:01:37.826Z,19.90
2023-02-05T08:06:48.573Z,21.40
2023-02-05T08:09:16.892Z,23.33
2023-02-05T08:11:43.642Z,23.30
2023-02-05T08:14:10.205Z,21.80
2023-02-05T08:19:20.903Z,23.97
2023-02-05T08:21:47.510Z,24.17
2023-02-05T08:24:14.301Z,19.07
2023-02-05T08:26:41.282Z,17.47
2023-02-05T08:29:08.565Z,16.80
2023-02-05T08:31:35.622Z,20.77
2023-02-05T08:34:02.812Z,27.20
2023-02-05T08:36:29.572Z,21.20
2023-02-05T08:38:56.507Z,19.83
2023-02-05T08:41:23.219Z,23.07
2023-02-05T08:43:50.254Z,22.87
2023-02-05T08:46:19.291Z,23.13
2023-02-05T08:48:46.900Z,23.67
2023-02-05T08:51:15.894Z,24.50
2023-02-05T08:53:42.929Z,27.13
2023-02-05T08:56:10.935Z,24.30
2023-02-05T08:58:38.278Z,23.00
2023-02-05T09:01:05.984Z,25.33
2023-02-05T09:03:32.865Z,25.97
2023-02-05T09:08:44.109Z,21.00
2023-02-05T09:11:13.496Z,22.10
2023-02-05T09:13:40.964Z,21.90
2023-02-05T09:16:09.959Z,22.97
2023-02-05T09:18:36.761Z,25.43
2023-02-05T09:21:05.800Z,27.40
2023-02-05T09:23:32.462Z,27.63
2023-02-05T09:28:43.766Z,26.53
2023-02-05T09:33:57.348Z,32.33
2023-02-05T09:39:18.435Z,34.03
2023-02-05T09:41:54.331Z,32.37
2023-02-05T09:44:24.106Z,31.87
2023-02-05T09:46:53.923Z,30.90
2023-02-05T09:49:27.702Z,31.20
2023-02-05T09:52:17.223Z,29.43
2023-02-05T09:57:35.547Z,24.77
2023-02-05T10:00:02.343Z,28.67
2023-02-05T10:02:58.838Z,25.87
2023-02-05T10:05:26.650Z,24.20
2023-02-05T10:07:53.372Z,22.53
2023-02-05T10:10:24.949Z,22.13
2023-02-05T10:12:57.524Z,30.60
2023-02-05T10:15:42.523Z,30.47
2023-02-05T10:18:11.963Z,30.27
2023-02-05T10:21:17.192Z,41.63
2023-02-05T10:26:52.635Z,35.43
2023-02-05T10:32:18.703Z,38.13
2023-02-05T10:37:47.932Z,36.67
2023-02-05T10:40:16.420Z,38.00
2023-02-05T10:42:57.306Z,33.50
2023-02-05T10:45:26.161Z,28.60
2023-02-05T10:47:59.201Z,27.80
2023-02-05T10:50:27.843Z,20.57
2023-02-05T10:52:54.581Z,19.40
2023-02-05T10:55:21.513Z,26.53
2023-02-05T10:57:48.251Z,48.80
2023-02-05T11:00:15.485Z,29.03
2023-02-05T11:02:43.438Z,11.43
2023-02-05T11:05:22.753Z,13.57
2023-02-05T11:07:50.636Z,14.50
2023-02-05T11:10:18.781Z,71.93
2023-02-05T11:12:49.208Z,11.90
2023-02-05T11:15:33.853Z,9.60
2023-02-05T11:18:01.774Z,9.00
2023-02-05T11:20:35.672Z,37.20
2023-02-05T11:23:13.673Z,49.00
2023-02-05T11:25:48.707Z,17.00
2023-02-05T11:28:20.840Z,15.43
2023-02-05T11:30:51.398Z,35.30
2023-02-05T11:33:19.212Z,6.23
2023-02-05T11:35:55.006Z,10.87
2023-02-05T11:38:29.958Z,10.00
2023-02-05T11:43:50.401Z,13.33
2023-02-05T11:49:05.804Z,19.00
2023-02-05T11:51:35.786Z,6.80
2023-02-05T11:54:03.408Z,11.23
2023-02-05T11:56:30.188Z,6.63
2023-02-05T12:01:45.920Z,8.20
2023-02-05T12:07:01.431Z,2.93
2023-02-05T12:09:28.128Z,4.20
2023-02-05T12:12:18.756Z,6.50
2023-02-05T12:15:04.120Z,3.67
2023-02-05T12:17:41.491Z,4.50
2023-02-05T12:20:28.142Z,2.90
2023-02-05T12:23:14.071Z,1.93
2023-02-05T12:26:03.897Z,1.30
2023-02-05T12:28:34.595Z,1.50
2023-02-05T12:31:07.430Z,1.03
2023-02-05T12:33:53.013Z,1.73
2023-02-05T12:39:20.343Z,0.60
2023-02-05T12:42:11.781Z,1.20
2023-02-05T12:44:48.037Z,1.20
2023-02-05T12:47:17.709Z,0.80
2023-02-05T12:49:45.095Z,0.80
2023-02-05T12:52:24.090Z,1.10
2023-02-05T12:54:53.545Z,1.30
2023-02-05T12:57:20.765Z,1.03
2023-02-05T12:59:58.746Z,1.20
2023-02-05T13:02:33.640Z,2.33
2023-02-05T13:05:21.878Z,2.97
2023-02-05T13:07:54.725Z,0.70
2023-02-05T13:10:23.097Z,0.90
2023-02-05T13:12:51.170Z,1.30
2023-02-05T13:15:17.964Z,1.17
2023-02-05T13:18:00.979Z,0.70
2023-02-05T13:20:59.382Z,1.00
2023-02-05T13:23:45.433Z,0.87
2023-02-05T13:26:26.174Z,1.40
2023-02-05T13:28:57.867Z,2.20
2023-02-05T13:31:25.235Z,1.37
2023-02-05T13:33:52.257Z,1.23
2023-02-05T13:36:24.959Z,1.70
2023-02-05T13:38:54.587Z,4.80
2023-02-05T13:44:29.840Z,2.87
2023-02-05T13:47:06.405Z,2.20
2023-02-05T13:49:43.061Z,1.40
2023-02-05T13:52:10.140Z,1.30
2023-02-05T13:55:00.301Z,1.93
2023-02-05T14:00:30.852Z,1.77
2023-02-05T14:02:57.704Z,1.20
2023-02-05T14:05:28.426Z,1.20
2023-02-05T14:10:43.576Z,1.40
2023-02-05T14:13:19.019Z,4.10
2023-02-05T14:15:45.877Z,2.10
2023-02-05T14:18:15.387Z,2.03
2023-02-05T14:20:42.353Z,3.47
2023-02-05T14:23:12.811Z,4.33
2023-02-05T14:25:47.787Z,5.27
2023-02-05T14:28:17.358Z,7.53
2023-02-05T14:30:53.189Z,6.40
2023-02-05T14:33:38.387Z,7.37
2023-02-05T14:39:20.442Z,16.93
2023-02-05T14:41:50.939Z,16.23
2023-02-05T14:44:17.665Z,15.33
2023-02-05T14:46:47.225Z,15.27
2023-02-05T14:49:23.887Z,15.23
2023-02-05T14:51:59.280Z,10.10
2023-02-05T14:54:48.448Z,12.77
2023-02-05T14:57:20.178Z,12.83
2023-02-05T14:59:49.820Z,12.33
2023-02-05T15:02:42.630Z,12.40
2023-02-05T15:05:12.953Z,13.50
2023-02-05T15:07:42.006Z,16.93
2023-02-05T15:10:08.629Z,17.80
2023-02-05T15:15:33.909Z,24.03
2023-02-05T15:18:17.441Z,21.07
2023-02-05T15:20:48.331Z,20.17
2023-02-05T15:23:24.559Z,18.93
2023-02-05T15:25:54.494Z,19.10
2023-02-05T15:28:25.955Z,21.50
2023-02-05T15:30:53.399Z,24.53
2023-02-05T15:33:31.407Z,26.13
2023-02-05T15:35:58.099Z,25.50
2023-02-05T15:41:17.581Z,24.07
2023-02-05T15:43:56.891Z,22.40
2023-02-05T15:46:23.655Z,16.60
2023-02-05T15:48:50.277Z,14.87
2023-02-05T15:51:23.001Z,14.50
2023-02-05T15:53:50.596Z,14.97
2023-02-05T15:56:20.441Z,18.63
2023-02-05T16:01:46.730Z,19.27
2023-02-05T16:04:38.426Z,20.27
2023-02-05T16:07:21.991Z,20.83
2023-02-05T16:12:35.856Z,15.60
2023-02-05T16:15:04.190Z,15.33
2023-02-05T16:18:01.804Z,17.73
2023-02-05T16:23:51.446Z,16.00
2023-02-05T16:26:24.586Z,24.70
2023-02-05T16:28:53.164Z,24.83
2023-02-05T16:31:20.904Z,28.00
2023-02-05T16:33:48.133Z,29.00
2023-02-05T16:36:22.231Z,27.70
2023-02-05T16:38:50.499Z,25.60
2023-02-05T16:41:18.799Z,24.67
2023-02-05T16:43:45.434Z,27.00
2023-02-05T16:48:59.988Z,33.47
2023-02-05T16:51:32.690Z,29.83
2023-02-05T16:54:00.744Z,26.80
2023-02-05T16:56:29.397Z,28.40
2023-02-05T16:59:19.935Z,28.60
2023-02-05T17:01:46.774Z,27.90
2023-02-05T17:04:26.749Z,28.90
2023-02-05T17:06:56.978Z,27.93
2023-02-05T17:09:34.060Z,30.10
2023-02-05T17:12:19.602Z,28.20
2023-02-05T17:15:00.240Z,28.80
2023-02-05T17:17:26.971Z,30.63
2023-02-05T17:22:58.513Z,42.83
2023-02-05T17:25:26.809Z,43.33
2023-02-05T17:27:53.509Z,42.33
2023-02-05T17:30:21.144Z,44.47
2023-02-05T17:32:47.949Z,54.00
2023-02-05T17:35:15.010Z,53.17
2023-02-05T17:37:48.880Z,48.73
2023-02-05T17:40:16.640Z,49.10
2023-02-05T17:42:45.426Z,49.07
2023-02-05T17:45:17.880Z,48.03
2023-02-05T17:47:44.692Z,44.87
2023-02-05T17:50:13.657Z,44.73
2023-02-05T17:55:24.842Z,39.93
2023-02-05T17:57:51.826Z,46.67
2023-02-05T18:00:20.403Z,36.77
2023-02-05T18:02:47.205Z,34.73
2023-02-05T18:05:15.229Z,33.57
2023-02-05T18:07:48.672Z,36.80
2023-02-05T18:10:16.650Z,35.87
2023-02-05T18:12:43.367Z,37.30
2023-02-05T18:15:11.550Z,38.07
2023-02-05T18:17:38.337Z,36.47
2023-02-05T18:20:05.878Z,34.87
2023-02-05T18:22:32.506Z,42.07
2023-02-05T18:24:59.597Z,39.60
2023-02-05T18:27:27.545Z,38.47
2023-02-05T18:29:56.222Z,38.13
2023-02-05T18:32:22.929Z,44.87
2023-02-05T18:34:49.656Z,36.87
2023-02-05T18:37:16.936Z,37.13
2023-02-05T18:42:29.672Z,40.13
2023-02-05T18:44:57.762Z,37.70
2023-02-05T18:47:24.660Z,38.93
2023-02-05T18:49:51.856Z,37.13
2023-02-05T18:52:20.519Z,34.50
2023-02-05T18:54:47.181Z,38.60
2023-02-05T18:57:16.478Z,41.27
2023-02-05T18:59:44.623Z,42.80
2023-02-05T19:02:13.273Z,40.33
2023-02-05T19:04:41.868Z,41.50
2023-02-05T19:07:08.634Z,39.80
2023-02-05T19:09:35.268Z,42.80
2023-02-05T19:12:02.690Z,37.13
2023-02-05T19:14:30.683Z,39.13
2023-02-05T19:16:57.495Z,39.70
2023-02-05T19:19:24.789Z,36.13
2023-02-05T19:21:54.247Z,36.27
2023-02-05T19:24:22.191Z,36.60
2023-02-05T19:26:50.022Z,36.10
2023-02-05T19:29:17.891Z,35.67
2023-02-05T19:31:45.008Z,41.17
2023-02-05T19:34:11.863Z,40.73
2023-02-05T19:36:38.751Z,39.13
2023-02-05T19:39:06.261Z,33.87
2023-02-05T19:41:33.586Z,31.23
2023-02-05T19:44:03.788Z,27.23
2023-02-05T19:46:35.165Z,25.70
2023-02-05T19:49:02.867Z,25.07
2023-02-05T19:51:30.151Z,27.17
2023-02-05T19:53:57.405Z,28.43
2023-02-05T19:56:24.083Z,28.30
2023-02-05T19:58:51.923Z,30.47
2023-02-05T20:01:26.082Z,31.30
2023-02-05T20:03:56.824Z,31.43
2023-02-05T20:06:24.192Z,33.57
2023-02-05T20:08:54.043Z,43.77
2023-02-05T20:11:20.797Z,43.30
2023-02-05T20:13:50.275Z,42.73
2023-02-05T20:16:20.764Z,40.07
2023-02-05T20:18:53.443Z,39.60
2023-02-05T20:21:20.474Z,40.83
2023-02-05T20:23:47.674Z,39.33
2023-02-05T20:26:18.795Z,39.17
2023-02-05T20:31:51.232Z,45.60
2023-02-05T20:37:06.975Z,38.07
2023-02-05T20:39:35.392Z,36.33
2023-02-05T20:42:02.726Z,36.67
2023-02-05T20:44:31.638Z,36.00
2023-02-05T20:47:00.389Z,35.00
2023-02-05T20:49:27.624Z,37.37
2023-02-05T20:51:58.218Z,35.37
2023-02-05T20:57:12.575Z,34.87
2023-02-05T20:59:39.319Z,34.47
2023-02-05T21:02:06.541Z,39.10
2023-02-05T21:04:33.426Z,38.97
2023-02-05T21:07:05.850Z,34.00
2023-02-05T21:09:34.914Z,37.37
2023-02-05T21:12:02.774Z,38.47
2023-02-05T21:14:30.581Z,38.27
2023-02-05T21:16:57.953Z,41.73
2023-02-05T21:19:25.712Z,40.53
2023-02-05T21:21:52.898Z,41.23
2023-02-05T21:24:20.773Z,47.93
2023-02-05T21:26:48.113Z,49.17
2023-02-05T21:29:15.703Z,39.00
2023-02-05T21:31:45.111Z,46.53
2023-02-05T21:37:00.945Z,39.60
2023-02-05T21:39:29.533Z,41.10
2023-02-05T21:41:56.197Z,40.93
2023-02-05T21:44:23.174Z,37.20
2023-02-05T21:46:49.954Z,45.07
2023-02-05T21:49:16.595Z,41.27
2023-02-05T21:51:43.810Z,45.10
2023-02-05T21:54:10.964Z,37.20
2023-02-05T21:56:38.845Z,38.50
2023-02-05T21:59:05.643Z,35.97
2023-02-05T22:01:33.304Z,38.17
2023-02-05T22:04:02.159Z,39.00
2023-02-05T22:06:31.512Z,38.47
2023-02-05T22:08:58.537Z,40.37
2023-02-05T22:11:25.601Z,36.83
2023-02-05T22:16:38.501Z,37.43
2023-02-05T22:19:05.200Z,35.27
2023-02-05T22:21:32.725Z,38.07
2023-02-05T22:23:59.721Z,39.87
2023-02-05T22:29:15.389Z,40.33
2023-02-05T22:34:26.693Z,47.23
2023-02-05T22:36:53.339Z,58.13
2023-02-05T22:39:19.951Z,55.30
2023-02-05T22:41:46.506Z,53.87
2023-02-05T22:44:13.166Z,50.23
2023-02-05T22:46:40.729Z,42.60
2023-02-05T22:49:07.497Z,43.20
2023-02-05T22:51:35.510Z,42.83
2023-02-05T22:54:02.212Z,40.53
2023-02-05T22:56:28.852Z,46.57
2023-02-05T22:58:55.637Z,43.00
2023-02-05T23:01:23.231Z,44.40
2023-02-05T23:03:50.992Z,43.77
2023-02-05T23:06:21.527Z,42.20
2023-02-05T23:08:51.889Z,41.30
2023-02-05T23:11:18.527Z,38.60
2023-02-05T23:13:45.463Z,40.40
2023-02-05T23:16:12.996Z,40.07
2023-02-05T23:18:39.680Z,36.17
2023-02-05T23:23:51.584Z,36.43
2023-02-05T23:26:19.125Z,38.43
2023-02-05T23:28:45.881Z,32.30
2023-02-05T23:31:12.648Z,30.53
2023-02-05T23:36:23.603Z,23.97
2023-02-05T23:41:37.467Z,14.20
2023-02-05T23:46:49.786Z,14.13
2023-02-05T23:52:00.846Z,13.63
2023-02-05T23:54:27.402Z,12.53
2023-02-05T23:56:54.775Z,12.23
2023-02-05T23:59:21.464Z,11.90
